createdAt,value
2018-07-04T00:01:34.449Z,59.30
2018-07-04T00:04:48.758Z,57.50
2018-07-04T00:08:06.692Z,59.86
2018-07-04T00:11:22.156Z,58.73
2018-07-04T00:14:42.110Z,59.07
2018-07-04T00:17:56.455Z,59.73
2018-07-04T00:21:10.724Z,59.93
2018-07-04T00:24:26.980Z,60.14
2018-07-04T00:27:41.182Z,61.13
2018-07-04T00:31:01.342Z,61.34
2018-07-04T00:34:21.393Z,62.84
2018-07-04T00:37:36.784Z,63.73
2018-07-04T00:40:52.207Z,63.94
2018-07-04T00:44:07.647Z,64.37
2018-07-04T00:47:21.832Z,64.63
2018-07-04T00:50:38.254Z,65.42
2018-07-04T00:53:52.614Z,65.18
2018-07-04T00:57:12.894Z,65.77
2018-07-04T01:00:27.211Z,66.28
2018-07-04T01:03:41.605Z,66.19
2018-07-04T01:06:55.893Z,67.71
2018-07-04T01:10:10.345Z,67.19
2018-07-04T01:13:25.666Z,67.54
2018-07-04T01:16:40.027Z,67.81
2018-07-04T01:19:56.343Z,67.35
2018-07-04T01:23:11.670Z,66.80
2018-07-04T01:26:27.097Z,68.15
2018-07-04T01:29:42.348Z,67.57
2018-07-04T01:32:57.726Z,67.15
2018-07-04T01:36:17.910Z,67.15
2018-07-04T01:39:32.057Z,67.87
2018-07-04T01:42:46.422Z,68.29
2018-07-04T01:46:00.809Z,68.21
2018-07-04T01:49:17.077Z,66.63
2018-07-04T01:52:31.474Z,66.48
2018-07-04T01:55:46.675Z,66.23
2018-07-04T01:59:04.291Z,65.86
2018-07-04T02:02:18.597Z,66.39
2018-07-04T02:05:34.980Z,67.27
2018-07-04T02:08:51.266Z,68.34
2018-07-04T02:12:05.484Z,69.61
2018-07-04T02:15:21.814Z,70.93
2018-07-04T02:18:41.111Z,70.35
2018-07-04T02:22:02.249Z,69.23
2018-07-04T02:25:17.653Z,69.25
2018-07-04T02:28:33.926Z,69.91
2018-07-04T02:31:48.254Z,70.70
2018-07-04T02:35:07.568Z,70.69
2018-07-04T02:38:22.868Z,70.54
2018-07-04T02:41:37.179Z,70.23
2018-07-04T02:44:51.523Z,69.96
2018-07-04T02:48:12.676Z,69.48
2018-07-04T02:51:27.914Z,69.33
2018-07-04T02:54:42.205Z,69.37
2018-07-04T02:57:56.693Z,67.52
2018-07-04T03:01:12.752Z,68.05
2018-07-04T03:04:28.060Z,68.30
2018-07-04T03:07:43.466Z,68.25
2018-07-04T03:11:03.656Z,69.05
2018-07-04T03:14:20.043Z,69.35
2018-07-04T03:17:35.353Z,68.49
2018-07-04T03:20:50.749Z,69.19
2018-07-04T03:24:06.976Z,68.93
2018-07-04T03:27:21.329Z,70.04
2018-07-04T03:30:39.558Z,69.90
2018-07-04T03:33:53.937Z,69.31
2018-07-04T03:37:09.246Z,69.01
2018-07-04T03:40:23.567Z,69.33
2018-07-04T03:43:38.794Z,69.51
2018-07-04T03:46:53.050Z,69.55
2018-07-04T03:50:13.207Z,69.02
2018-07-04T03:53:27.366Z,69.64
2018-07-04T03:56:43.609Z,69.59
2018-07-04T04:00:03.661Z,69.01
2018-07-04T04:03:22.973Z,67.75
2018-07-04T04:06:37.423Z,66.37
2018-07-04T04:09:52.887Z,67.71
2018-07-04T04:13:07.122Z,68.03
2018-07-04T04:16:22.433Z,66.21
2018-07-04T04:19:37.698Z,66.08
2018-07-04T04:22:51.885Z,65.44
2018-07-04T04:26:06.297Z,64.65
2018-07-04T04:29:20.500Z,63.06
2018-07-04T04:32:37.917Z,59.07
2018-07-04T04:35:55.409Z,59.05
2018-07-04T04:39:09.764Z,59.30
2018-07-04T04:42:24.106Z,57.40
2018-07-04T04:45:43.393Z,57.79
2018-07-04T04:48:58.688Z,55.50
2018-07-04T04:52:14.532Z,53.23
2018-07-04T04:55:28.805Z,55.83
2018-07-04T04:58:42.979Z,54.14
2018-07-04T05:02:06.374Z,54.06
2018-07-04T05:05:20.685Z,53.25
2018-07-04T05:08:34.836Z,51.88
2018-07-04T05:11:50.037Z,51.34
2018-07-04T05:15:05.253Z,50.23
2018-07-04T05:18:19.444Z,50.01
2018-07-04T05:21:34.717Z,48.50
2018-07-04T05:24:53.921Z,42.00
2018-07-04T05:28:09.319Z,37.81
2018-07-04T05:31:24.715Z,38.50
2018-07-04T05:34:45.768Z,36.37
2018-07-04T05:38:02.158Z,34.47
2018-07-04T05:41:16.381Z,34.14
2018-07-04T05:44:31.671Z,34.31
2018-07-04T05:47:45.909Z,35.63
2018-07-04T05:51:01.231Z,37.83
2018-07-04T05:54:21.221Z,39.61
2018-07-04T05:57:37.391Z,40.02
2018-07-04T06:00:55.625Z,39.73
2018-07-04T06:04:18.866Z,38.63
2018-07-04T06:07:37.383Z,38.13
2018-07-04T06:10:51.664Z,37.77
2018-07-04T06:14:07.929Z,36.03
2018-07-04T06:17:22.721Z,32.87
2018-07-04T06:20:36.922Z,30.16
2018-07-04T06:23:55.008Z,28.44
2018-07-04T06:27:09.197Z,33.31
2018-07-04T06:30:24.641Z,36.25
2018-07-04T06:33:39.877Z,36.03
2018-07-04T06:36:56.259Z,35.92
2018-07-04T06:39:58.249Z,33.89
2018-07-04T06:43:01.261Z,31.54
2018-07-04T06:46:05.240Z,28.86
2018-07-04T06:49:13.081Z,27.90
2018-07-04T06:52:15.669Z,29.08
2018-07-04T06:55:29.045Z,31.67
2018-07-04T06:58:33.079Z,27.69
2018-07-04T07:01:34.842Z,24.97
2018-07-04T07:04:51.176Z,23.56
2018-07-04T07:08:05.481Z,23.35
2018-07-04T07:11:27.639Z,24.48
2018-07-04T07:14:41.853Z,24.61
2018-07-04T07:17:55.897Z,24.52
2018-07-04T07:21:17.115Z,23.64
2018-07-04T07:24:37.042Z,21.47
2018-07-04T07:27:58.986Z,21.89
2018-07-04T07:31:21.059Z,23.03
2018-07-04T07:34:35.400Z,25.85
2018-07-04T07:37:52.885Z,23.17
2018-07-04T07:41:13.707Z,23.87
2018-07-04T07:44:30.018Z,23.38
2018-07-04T07:47:45.434Z,25.96
2018-07-04T07:51:06.609Z,25.90
2018-07-04T07:54:20.868Z,27.48
2018-07-04T07:57:36.150Z,24.48
2018-07-04T08:00:57.116Z,24.35
2018-07-04T08:04:17.071Z,26.67
2018-07-04T08:07:33.370Z,26.92
2018-07-04T08:10:47.552Z,27.30
2018-07-04T08:14:01.952Z,27.52
2018-07-04T08:17:23.889Z,26.96
2018-07-04T08:20:38.167Z,26.54
2018-07-04T08:23:58.281Z,26.30
2018-07-04T08:27:17.654Z,27.23
2018-07-04T08:30:38.618Z,25.51
2018-07-04T08:33:58.587Z,24.22
2018-07-04T08:37:14.520Z,24.08
2018-07-04T08:40:38.662Z,24.50
2018-07-04T08:43:53.026Z,23.14
2018-07-04T08:47:07.320Z,23.95
2018-07-04T08:50:27.315Z,25.55
2018-07-04T08:53:48.547Z,25.78
2018-07-04T08:57:02.784Z,26.85
2018-07-04T09:00:23.878Z,25.40
2018-07-04T09:03:38.250Z,26.08
2018-07-04T09:06:56.986Z,26.75
2018-07-04T09:10:18.178Z,26.47
2018-07-04T09:13:32.397Z,24.85
2018-07-04T09:16:47.775Z,24.77
2018-07-04T09:20:08.846Z,24.37
2018-07-04T09:23:24.165Z,25.23
2018-07-04T09:26:45.343Z,25.14
2018-07-04T09:29:59.546Z,25.12
2018-07-04T09:33:14.800Z,24.58
2018-07-04T09:36:34.790Z,23.71
2018-07-04T09:39:50.130Z,22.08
2018-07-04T09:43:12.134Z,21.97
2018-07-04T09:46:32.298Z,23.68
2018-07-04T09:49:47.680Z,22.07
2018-07-04T09:53:08.566Z,23.18
2018-07-04T09:56:22.733Z,26.72
2018-07-04T09:59:38.006Z,24.58
2018-07-04T10:02:53.357Z,23.45
2018-07-04T10:06:08.764Z,22.90
2018-07-04T10:09:24.143Z,25.25
2018-07-04T10:12:38.566Z,28.94
2018-07-04T10:15:52.871Z,32.89
2018-07-04T10:19:07.229Z,33.72
2018-07-04T10:22:28.336Z,35.22
2018-07-04T10:25:48.352Z,35.39
2018-07-04T10:29:06.586Z,36.72
2018-07-04T10:32:26.670Z,35.82
2018-07-04T10:35:40.852Z,35.16
2018-07-04T10:39:07.273Z,36.64
2018-07-04T10:42:22.499Z,37.71
2018-07-04T10:45:36.794Z,37.96
2018-07-04T10:48:52.080Z,39.45
2018-07-04T10:52:06.349Z,42.25
2018-07-04T10:55:20.608Z,42.58
2018-07-04T10:58:41.647Z,41.15
2018-07-04T11:02:01.753Z,41.07
2018-07-04T11:05:16.174Z,40.48
2018-07-04T11:08:30.428Z,40.31
2018-07-04T11:11:55.060Z,41.41
2018-07-04T11:15:09.397Z,41.96
2018-07-04T11:18:24.848Z,41.92
2018-07-04T11:21:40.256Z,41.45
2018-07-04T11:24:56.537Z,41.13
2018-07-04T11:28:11.849Z,41.09
2018-07-04T11:31:26.070Z,40.87
2018-07-04T11:34:41.458Z,40.88
2018-07-04T11:37:55.662Z,41.61
2018-07-04T11:41:11.103Z,41.29
2018-07-04T11:44:26.496Z,42.02
2018-07-04T11:47:29.506Z,42.16
2018-07-04T11:50:31.056Z,42.56
2018-07-04T11:53:41.010Z,41.62
2018-07-04T11:56:44.185Z,42.54
2018-07-04T11:59:47.109Z,41.77
2018-07-04T12:02:51.160Z,41.53
2018-07-04T12:06:17.065Z,40.31
2018-07-04T12:09:21.035Z,37.85
2018-07-04T12:12:22.966Z,36.41
2018-07-04T12:15:26.018Z,36.26
2018-07-04T12:18:28.067Z,36.43
2018-07-04T12:21:31.095Z,33.14
2018-07-04T12:24:33.025Z,35.44
2018-07-04T12:27:36.034Z,30.72
2018-07-04T12:30:37.530Z,32.60
2018-07-04T12:33:40.071Z,31.40
2018-07-04T12:36:42.561Z,30.86
2018-07-04T12:39:49.408Z,27.42
2018-07-04T12:42:52.412Z,30.14
2018-07-04T12:45:55.382Z,33.35
2018-07-04T12:49:00.165Z,36.29
2018-07-04T12:52:02.177Z,39.62
2018-07-04T12:55:17.352Z,39.90
2018-07-04T12:58:32.627Z,40.06
2018-07-04T13:01:46.912Z,39.66
2018-07-04T13:05:02.190Z,41.38
2018-07-04T13:08:16.417Z,41.92
2018-07-04T13:11:31.714Z,39.88
2018-07-04T13:14:50.319Z,41.45
2018-07-04T13:18:05.735Z,40.59
2018-07-04T13:21:24.613Z,41.33
2018-07-04T13:24:38.897Z,43.25
2018-07-04T13:27:55.151Z,42.80
2018-07-04T13:31:09.314Z,44.04
2018-07-04T13:34:24.540Z,44.98
2018-07-04T13:37:39.874Z,45.05
2018-07-04T13:40:55.320Z,45.72
2018-07-04T13:44:15.781Z,46.77
2018-07-04T13:47:31.066Z,47.20
2018-07-04T13:50:51.135Z,47.49
2018-07-04T13:54:07.444Z,48.46
2018-07-04T13:57:22.869Z,49.81
2018-07-04T14:00:37.211Z,51.19
2018-07-04T14:03:51.634Z,51.36
2018-07-04T14:07:11.656Z,52.51
2018-07-04T14:10:29.300Z,52.79
2018-07-04T14:13:43.653Z,53.45
2018-07-04T14:17:04.741Z,52.71
2018-07-04T14:20:19.127Z,53.51
2018-07-04T14:23:33.605Z,54.64
2018-07-04T14:26:47.789Z,53.52
2018-07-04T14:30:01.977Z,52.64
2018-07-04T14:33:17.166Z,52.76
2018-07-04T14:36:33.655Z,52.52
2018-07-04T14:39:49.038Z,53.68
2018-07-04T14:43:04.309Z,52.48
2018-07-04T14:46:19.610Z,53.09
2018-07-04T14:49:33.922Z,52.34
2018-07-04T14:52:49.794Z,53.59
2018-07-04T14:56:08.695Z,53.62
2018-07-04T14:59:23.978Z,53.58
2018-07-04T15:02:43.979Z,53.66
2018-07-04T15:05:59.129Z,51.63
2018-07-04T15:09:14.337Z,50.91
2018-07-04T15:12:29.581Z,50.42
2018-07-04T15:15:43.911Z,50.96
2018-07-04T15:19:03.362Z,51.56
2018-07-04T15:22:22.371Z,51.81
2018-07-04T15:25:38.636Z,53.88
2018-07-04T15:28:53.858Z,53.60
2018-07-04T15:32:08.130Z,53.69
2018-07-04T15:35:27.318Z,54.84
2018-07-04T15:38:42.870Z,55.18
2018-07-04T15:42:03.587Z,55.19
2018-07-04T15:45:22.313Z,54.30
2018-07-04T15:48:36.551Z,55.44
2018-07-04T15:51:50.829Z,56.01
2018-07-04T15:55:05.179Z,55.55
2018-07-04T15:58:23.069Z,56.73
2018-07-04T16:01:38.543Z,56.74
2018-07-04T16:04:56.372Z,51.96
2018-07-04T16:08:10.528Z,50.81
2018-07-04T16:11:36.011Z,51.51
2018-07-04T16:14:52.326Z,49.62
2018-07-04T16:18:08.499Z,49.96
2018-07-04T16:21:36.690Z,50.32
2018-07-04T16:24:57.157Z,50.61
2018-07-04T16:28:22.142Z,50.28
2018-07-04T16:31:36.375Z,50.15
2018-07-04T16:34:51.564Z,50.46
2018-07-04T16:38:06.745Z,50.53
2018-07-04T16:41:28.718Z,50.60
2018-07-04T16:44:43.973Z,49.55
2018-07-04T16:47:58.479Z,50.00
2018-07-04T16:51:13.888Z,49.82
2018-07-04T16:54:28.254Z,50.45
2018-07-04T16:57:47.365Z,51.37
2018-07-04T17:01:12.914Z,49.43
2018-07-04T17:04:27.321Z,49.83
2018-07-04T17:07:48.395Z,50.93
2018-07-04T17:11:04.679Z,51.20
2018-07-04T17:14:18.975Z,53.11
2018-07-04T17:17:39.054Z,56.35
2018-07-04T17:20:55.287Z,58.53
2018-07-04T17:24:12.109Z,58.61
2018-07-04T17:27:33.290Z,60.42
2018-07-04T17:30:49.674Z,62.19
2018-07-04T17:34:03.985Z,64.06
2018-07-04T17:37:26.123Z,64.05
2018-07-04T17:40:42.554Z,64.15
2018-07-04T17:43:57.832Z,63.73
2018-07-04T17:47:17.249Z,64.60
2018-07-04T17:50:31.487Z,64.59
2018-07-04T17:53:47.144Z,64.52
2018-07-04T17:57:09.262Z,64.59
2018-07-04T18:00:23.486Z,64.70
2018-07-04T18:03:42.673Z,64.75
2018-07-04T18:06:59.005Z,65.21
2018-07-04T18:10:13.271Z,64.93
2018-07-04T18:13:28.469Z,64.33
2018-07-04T18:16:43.707Z,65.05
2018-07-04T18:19:58.945Z,63.41
2018-07-04T18:23:13.149Z,63.72
2018-07-04T18:26:28.309Z,65.38
2018-07-04T18:29:42.749Z,66.09
2018-07-04T18:32:56.969Z,65.76
2018-07-04T18:36:17.926Z,65.99
2018-07-04T18:39:33.161Z,66.65
2018-07-04T18:42:47.474Z,66.80
2018-07-04T18:46:07.348Z,65.08
2018-07-04T18:49:22.106Z,63.94
2018-07-04T18:52:36.337Z,62.90
2018-07-04T18:55:58.059Z,64.07
2018-07-04T18:59:12.353Z,64.55
2018-07-04T19:02:31.094Z,65.47
2018-07-04T19:05:45.287Z,65.96
2018-07-04T19:09:00.688Z,66.65
2018-07-04T19:12:22.870Z,67.21
2018-07-04T19:15:46.479Z,67.21
2018-07-04T19:19:08.597Z,67.66
2018-07-04T19:22:28.742Z,67.22
2018-07-04T19:25:45.078Z,66.21
2018-07-04T19:29:05.210Z,66.45
2018-07-04T19:35:49.624Z,67.92
2018-07-04T19:39:05.838Z,68.78
2018-07-04T19:42:29.910Z,70.29
2018-07-04T19:45:49.342Z,70.80
2018-07-04T19:49:03.861Z,70.86
2018-07-04T19:52:22.532Z,70.82
2018-07-04T19:55:36.883Z,73.40
2018-07-04T19:58:54.422Z,74.32
2018-07-04T20:02:14.290Z,74.69
2018-07-04T20:05:37.811Z,75.33
2018-07-04T20:08:52.075Z,74.82
2018-07-04T20:12:06.465Z,76.09
2018-07-04T20:15:21.420Z,75.49
2018-07-04T20:18:36.752Z,76.17
2018-07-04T20:21:51.041Z,76.06
2018-07-04T20:25:05.186Z,76.17
2018-07-04T20:28:27.802Z,78.66
2018-07-04T20:31:44.158Z,78.78
2018-07-04T20:34:59.633Z,78.46
2018-07-04T20:38:13.801Z,78.98
2018-07-04T20:41:28.211Z,78.56
2018-07-04T20:44:43.442Z,80.02
2018-07-04T20:48:03.540Z,79.75
2018-07-04T20:51:19.030Z,80.78
2018-07-04T21:01:31.930Z,82.01
2018-07-04T21:04:53.006Z,82.34
2018-07-04T21:08:12.114Z,82.99
2018-07-04T21:11:29.536Z,83.14
2018-07-04T21:14:43.827Z,83.21
2018-07-04T21:17:59.154Z,83.71
2018-07-04T21:21:14.503Z,83.50
2018-07-04T21:24:37.122Z,83.22
2018-07-04T21:27:52.811Z,83.56
2018-07-04T21:31:09.801Z,84.84
2018-07-04T21:34:24.246Z,84.52
2018-07-04T21:37:38.951Z,84.39
2018-07-04T21:41:07.194Z,84.33
2018-07-04T21:44:22.750Z,83.42
2018-07-04T21:47:44.362Z,82.99
2018-07-04T21:51:00.197Z,84.03
2018-07-04T21:54:14.862Z,84.78
2018-07-04T21:57:29.487Z,85.19
2018-07-04T22:00:43.859Z,84.80
2018-07-04T22:04:04.519Z,84.77
2018-07-04T22:07:19.963Z,85.52
2018-07-04T22:10:35.038Z,85.22
2018-07-04T22:13:55.451Z,84.91
2018-07-04T22:17:10.274Z,84.84
2018-07-04T22:20:30.914Z,85.16
2018-07-04T22:23:47.420Z,85.14
2018-07-04T22:27:01.735Z,86.07
2018-07-04T22:30:16.384Z,84.98
2018-07-04T22:33:35.457Z,84.74
2018-07-04T22:36:55.083Z,84.63
2018-07-04T22:40:12.676Z,85.25
2018-07-04T22:43:27.208Z,84.64
2018-07-04T22:46:46.219Z,84.07
2018-07-04T22:50:00.908Z,85.09
2018-07-04T22:53:17.638Z,85.72
2018-07-04T22:56:32.179Z,85.70
2018-07-04T22:59:46.599Z,86.78
2018-07-04T23:03:01.798Z,86.39
2018-07-04T23:06:16.746Z,85.93
2018-07-04T23:09:31.050Z,86.20
2018-07-04T23:12:53.225Z,87.50
2018-07-04T23:16:13.143Z,87.92
2018-07-04T23:19:31.469Z,87.59
2018-07-04T23:22:45.882Z,87.80
2018-07-04T23:26:02.659Z,86.57
2018-07-04T23:29:17.922Z,87.17
2018-07-04T23:32:32.581Z,87.67
2018-07-04T23:35:54.074Z,87.65
2018-07-04T23:39:08.589Z,88.01
2018-07-04T23:42:22.795Z,87.54
2018-07-04T23:45:39.855Z,87.45
2018-07-04T23:48:57.894Z,88.77
2018-07-04T23:52:13.667Z,89.76
2018-07-04T23:55:29.977Z,89.35
2018-07-04T23:58:44.286Z,89.62
